createdAt,value
2022-08-27T00:02:21.918Z,44.09
2022-08-27T00:04:50.941Z,44.30
2022-08-27T00:07:19.989Z,44.44
2022-08-27T00:09:49.735Z,44.68
2022-08-27T00:12:18.555Z,44.75
2022-08-27T00:14:47.708Z,44.91
2022-08-27T00:17:17.293Z,45.16
2022-08-27T00:19:45.839Z,45.12
2022-08-27T00:22:15.067Z,45.08
2022-08-27T00:24:49.008Z,45.01
2022-08-27T00:27:19.634Z,45.37
2022-08-27T00:29:48.896Z,45.53
2022-08-27T00:32:17.685Z,45.72
2022-08-27T00:34:46.660Z,45.81
2022-08-27T00:37:15.560Z,45.81
2022-08-27T00:39:44.245Z,46.01
2022-08-27T00:42:13.387Z,46.14
2022-08-27T00:44:42.328Z,45.90
2022-08-27T00:47:15.685Z,46.29
2022-08-27T00:49:47.988Z,46.26
2022-08-27T00:52:22.612Z,46.22
2022-08-27T00:54:56.820Z,46.48
2022-08-27T00:57:26.750Z,46.47
2022-08-27T00:59:55.391Z,46.45
2022-08-27T01:02:29.081Z,46.56
2022-08-27T01:05:02.630Z,46.82
2022-08-27T01:07:35.488Z,46.85
2022-08-27T01:10:07.570Z,46.74
2022-08-27T01:12:38.542Z,46.95
2022-08-27T01:15:16.943Z,47.16
2022-08-27T01:17:50.228Z,47.36
2022-08-27T01:20:22.615Z,47.36
2022-08-27T01:23:02.716Z,47.45
2022-08-27T01:25:31.895Z,47.55
2022-08-27T01:28:03.426Z,47.50
2022-08-27T01:30:32.723Z,47.56
2022-08-27T01:36:04.008Z,47.87
2022-08-27T01:38:33.096Z,47.77
2022-08-27T01:41:02.897Z,47.97
2022-08-27T01:43:31.889Z,48.04
2022-08-27T01:46:00.350Z,48.00
2022-08-27T01:48:28.910Z,48.08
2022-08-27T01:50:57.415Z,48.22
2022-08-27T01:53:27.727Z,48.52
2022-08-27T01:55:56.585Z,48.47
2022-08-27T01:58:28.706Z,48.57
2022-08-27T02:01:00.888Z,48.75
2022-08-27T02:03:29.980Z,48.74
2022-08-27T02:05:58.540Z,49.05
2022-08-27T02:08:27.054Z,49.25
2022-08-27T02:10:55.588Z,49.07
2022-08-27T02:13:24.159Z,49.37
2022-08-27T02:15:52.728Z,49.50
2022-08-27T02:18:21.315Z,49.53
2022-08-27T02:20:49.973Z,49.51
2022-08-27T02:23:19.024Z,49.66
2022-08-27T02:25:47.519Z,49.85
2022-08-27T02:28:16.052Z,49.87
2022-08-27T02:30:44.583Z,50.03
2022-08-27T02:33:13.426Z,49.95
2022-08-27T02:35:43.756Z,50.19
2022-08-27T02:38:13.987Z,50.10
2022-08-27T02:40:42.583Z,50.28
2022-08-27T02:43:15.733Z,50.15
2022-08-27T02:45:44.852Z,50.39
2022-08-27T02:48:13.427Z,50.55
2022-08-27T02:50:43.103Z,50.61
2022-08-27T02:53:11.924Z,50.76
2022-08-27T02:55:40.405Z,50.78
2022-08-27T02:58:09.398Z,51.02
2022-08-27T03:00:38.232Z,51.24
2022-08-27T03:03:06.687Z,51.29
2022-08-27T03:05:35.283Z,51.16
2022-08-27T03:08:04.466Z,51.39
2022-08-27T03:10:33.068Z,51.36
2022-08-27T03:13:01.637Z,51.67
2022-08-27T03:15:30.143Z,51.55
2022-08-27T03:18:16.837Z,51.76
2022-08-27T03:20:47.574Z,51.64
2022-08-27T03:23:17.337Z,51.86
2022-08-27T03:25:51.082Z,51.74
2022-08-27T03:28:23.168Z,51.92
2022-08-27T03:30:54.542Z,51.87
2022-08-27T03:33:23.203Z,51.96
2022-08-27T03:35:52.246Z,52.06
2022-08-27T03:38:21.756Z,52.02
2022-08-27T03:40:50.717Z,52.22
2022-08-27T03:43:21.331Z,52.07
2022-08-27T03:46:00.683Z,52.11
2022-08-27T03:48:31.622Z,52.22
2022-08-27T03:51:05.129Z,52.36
2022-08-27T03:53:33.764Z,52.48
2022-08-27T03:56:02.482Z,52.53
2022-08-27T03:58:31.169Z,52.41
2022-08-27T04:01:00.139Z,52.39
2022-08-27T04:03:28.751Z,52.49
2022-08-27T04:05:58.051Z,52.63
2022-08-27T04:08:27.328Z,52.64
2022-08-27T04:10:56.353Z,52.69
2022-08-27T04:13:25.425Z,52.78
2022-08-27T04:15:56.492Z,52.74
2022-08-27T04:18:25.070Z,52.83
2022-08-27T04:20:53.608Z,52.84
2022-08-27T04:23:22.317Z,52.90
2022-08-27T04:25:51.067Z,52.94
2022-08-27T04:28:19.707Z,53.12
2022-08-27T04:30:50.950Z,53.43
2022-08-27T04:33:19.489Z,53.45
2022-08-27T04:35:48.052Z,53.05
2022-08-27T04:38:16.581Z,52.33
2022-08-27T04:41:03.654Z,51.78
2022-08-27T04:43:32.137Z,51.64
2022-08-27T04:46:01.075Z,51.76
2022-08-27T04:48:29.572Z,51.32
2022-08-27T04:50:58.118Z,51.05
2022-08-27T04:53:26.954Z,50.89
2022-08-27T04:55:56.913Z,50.52
2022-08-27T04:58:26.671Z,49.66
2022-08-27T05:00:59.512Z,49.09
2022-08-27T05:03:28.932Z,48.36
2022-08-27T05:06:02.312Z,47.90
2022-08-27T05:08:31.356Z,47.19
2022-08-27T05:11:01.179Z,46.54
2022-08-27T05:13:30.336Z,46.10
2022-08-27T05:16:01.110Z,45.69
2022-08-27T05:18:30.355Z,45.41
2022-08-27T05:21:00.115Z,45.35
2022-08-27T05:23:28.949Z,45.30
2022-08-27T05:25:58.151Z,45.27
2022-08-27T05:28:28.720Z,45.14
2022-08-27T05:31:05.935Z,44.28
2022-08-27T05:33:34.609Z,43.74
2022-08-27T05:36:04.155Z,43.32
2022-08-27T05:38:33.629Z,42.50
2022-08-27T05:41:08.483Z,41.54
2022-08-27T05:43:38.401Z,41.25
2022-08-27T05:46:08.852Z,40.94
2022-08-27T05:48:38.583Z,40.69
2022-08-27T05:51:13.668Z,40.35
2022-08-27T05:53:45.274Z,39.78
2022-08-27T05:56:15.581Z,39.62
2022-08-27T05:59:03.837Z,39.05
2022-08-27T06:01:35.366Z,38.47
2022-08-27T06:04:05.244Z,37.86
2022-08-27T06:06:36.535Z,36.92
2022-08-27T06:09:05.840Z,35.97
2022-08-27T06:11:34.796Z,35.46
2022-08-27T06:14:03.853Z,34.51
2022-08-27T06:16:32.606Z,33.74
2022-08-27T06:19:01.272Z,33.61
2022-08-27T06:21:30.399Z,33.44
2022-08-27T06:23:59.109Z,32.96
2022-08-27T06:26:29.181Z,32.50
2022-08-27T06:29:01.708Z,31.94
2022-08-27T06:31:30.714Z,31.61
2022-08-27T06:34:07.269Z,31.53
2022-08-27T06:36:38.761Z,30.98
2022-08-27T06:39:08.316Z,30.45
2022-08-27T06:41:36.747Z,30.01
2022-08-27T06:44:11.886Z,29.61
2022-08-27T06:46:40.979Z,28.83
2022-08-27T06:49:10.085Z,28.82
2022-08-27T06:51:40.175Z,28.70
2022-08-27T06:54:11.685Z,28.60
2022-08-27T06:56:41.409Z,28.28
2022-08-27T06:59:14.869Z,27.78
2022-08-27T07:01:45.467Z,27.72
2022-08-27T07:04:17.596Z,27.59
2022-08-27T07:06:46.646Z,27.21
2022-08-27T07:09:15.917Z,27.12
2022-08-27T07:11:44.322Z,27.20
2022-08-27T07:14:12.781Z,27.02
2022-08-27T07:16:42.714Z,26.84
2022-08-27T07:19:13.887Z,26.43
2022-08-27T07:21:42.398Z,26.54
2022-08-27T07:24:11.968Z,26.47
2022-08-27T07:26:43.901Z,26.13
2022-08-27T07:29:14.876Z,25.94
2022-08-27T07:31:43.843Z,26.18
2022-08-27T07:34:12.464Z,26.42
2022-08-27T07:36:41.172Z,26.31
2022-08-27T07:39:10.211Z,26.34
2022-08-27T07:41:53.165Z,26.29
2022-08-27T07:44:26.111Z,26.05
2022-08-27T07:46:58.099Z,25.94
2022-08-27T07:49:29.362Z,26.00
2022-08-27T07:51:57.831Z,26.02
2022-08-27T07:54:26.967Z,25.77
2022-08-27T07:56:56.184Z,25.71
2022-08-27T07:59:26.199Z,25.66
2022-08-27T08:01:55.840Z,25.73
2022-08-27T08:04:26.085Z,25.99
2022-08-27T08:06:55.545Z,26.02
2022-08-27T08:09:24.483Z,26.28
2022-08-27T08:11:53.622Z,26.41
2022-08-27T08:14:22.454Z,26.62
2022-08-27T08:16:50.902Z,26.51
2022-08-27T08:19:20.249Z,26.80
2022-08-27T08:21:48.815Z,26.91
2022-08-27T08:24:18.232Z,27.29
2022-08-27T08:26:47.370Z,27.30
2022-08-27T08:29:18.154Z,27.31
2022-08-27T08:31:50.248Z,27.68
2022-08-27T08:34:19.658Z,27.49
2022-08-27T08:36:54.021Z,27.25
2022-08-27T08:39:24.341Z,27.57
2022-08-27T08:41:56.080Z,27.74
2022-08-27T08:44:31.504Z,27.61
2022-08-27T08:47:07.795Z,27.91
2022-08-27T08:49:55.265Z,27.91
2022-08-27T08:52:32.669Z,27.95
2022-08-27T08:55:14.012Z,27.70
2022-08-27T08:57:49.949Z,27.45
2022-08-27T09:00:19.515Z,27.98
2022-08-27T09:02:54.332Z,27.88
2022-08-27T09:05:27.428Z,27.56
2022-08-27T09:08:28.916Z,27.20
2022-08-27T09:11:04.865Z,27.84
2022-08-27T09:13:39.450Z,28.12
2022-08-27T09:16:08.977Z,27.69
2022-08-27T09:18:41.076Z,28.03
2022-08-27T09:21:27.566Z,28.24
2022-08-27T09:24:14.231Z,28.00
2022-08-27T09:26:44.763Z,27.90
2022-08-27T09:29:15.737Z,28.05
2022-08-27T09:31:46.318Z,28.10
2022-08-27T09:34:15.147Z,28.23
2022-08-27T09:36:59.500Z,28.66
2022-08-27T09:39:41.964Z,29.27
2022-08-27T09:42:34.994Z,29.34
2022-08-27T09:45:08.783Z,29.28
2022-08-27T09:47:46.998Z,28.67
2022-08-27T09:50:18.221Z,28.37
2022-08-27T09:52:54.355Z,28.41
2022-08-27T09:55:48.207Z,28.52
2022-08-27T09:58:20.805Z,28.43
2022-08-27T10:00:58.090Z,27.82
2022-08-27T10:03:30.058Z,27.55
2022-08-27T10:06:02.505Z,27.55
2022-08-27T10:08:38.588Z,27.58
2022-08-27T10:11:14.382Z,27.99
2022-08-27T10:13:51.768Z,28.02
2022-08-27T10:16:41.930Z,28.09
2022-08-27T10:19:24.826Z,27.52
2022-08-27T10:22:00.235Z,27.45
2022-08-27T10:24:38.464Z,27.54
2022-08-27T10:27:16.266Z,27.88
2022-08-27T10:29:52.256Z,28.27
2022-08-27T10:32:37.996Z,28.00
2022-08-27T10:35:14.765Z,28.22
2022-08-27T10:37:52.570Z,28.03
2022-08-27T10:40:29.187Z,27.97
2022-08-27T10:43:09.963Z,27.92
2022-08-27T10:45:47.245Z,27.61
2022-08-27T10:48:30.545Z,27.79
2022-08-27T10:51:06.516Z,28.20
2022-08-27T10:53:43.664Z,28.31
2022-08-27T10:56:19.172Z,28.32
2022-08-27T10:59:12.191Z,28.56
2022-08-27T11:01:48.401Z,28.55
2022-08-27T11:04:21.624Z,28.50
2022-08-27T11:06:57.488Z,28.28
2022-08-27T11:09:34.714Z,28.44
2022-08-27T11:12:16.110Z,28.85
2022-08-27T11:14:51.872Z,28.77
2022-08-27T11:17:25.323Z,28.79
2022-08-27T11:19:59.956Z,28.91
2022-08-27T11:22:34.542Z,28.76
2022-08-27T11:25:15.275Z,28.68
2022-08-27T11:27:46.208Z,28.40
2022-08-27T11:30:23.715Z,28.18
2022-08-27T11:32:59.248Z,27.62
2022-08-27T11:35:39.717Z,27.50
2022-08-27T11:38:35.661Z,26.86
2022-08-27T11:41:17.392Z,27.08
2022-08-27T11:43:46.979Z,26.87
2022-08-27T11:46:25.119Z,27.15
2022-08-27T11:49:00.163Z,26.70
2022-08-27T11:51:33.738Z,26.30
2022-08-27T11:54:06.205Z,26.59
2022-08-27T11:56:40.842Z,26.80
2022-08-27T11:59:21.983Z,27.00
2022-08-27T12:01:54.384Z,27.04
2022-08-27T12:04:35.759Z,26.72
2022-08-27T12:07:24.511Z,26.81
2022-08-27T12:10:16.408Z,26.73
2022-08-27T12:13:04.680Z,26.12
2022-08-27T12:15:49.506Z,26.31
2022-08-27T12:18:36.586Z,25.96
2022-08-27T12:21:19.925Z,25.74
2022-08-27T12:24:02.306Z,25.57
2022-08-27T12:26:34.044Z,26.06
2022-08-27T12:29:24.433Z,25.85
2022-08-27T12:32:04.446Z,25.59
2022-08-27T12:34:44.540Z,25.49
2022-08-27T12:37:13.420Z,25.70
2022-08-27T12:39:48.882Z,26.00
2022-08-27T12:42:21.384Z,26.13
2022-08-27T12:44:55.654Z,25.97
2022-08-27T12:47:24.576Z,26.00
2022-08-27T12:49:56.925Z,26.00
2022-08-27T12:52:49.288Z,25.94
2022-08-27T12:55:26.956Z,26.01
2022-08-27T12:58:04.070Z,26.21
2022-08-27T13:00:38.394Z,26.12
2022-08-27T13:03:29.269Z,26.13
2022-08-27T13:06:00.415Z,25.95
2022-08-27T13:08:32.514Z,26.02
2022-08-27T13:11:12.741Z,26.05
2022-08-27T13:13:42.994Z,25.88
2022-08-27T13:16:11.639Z,25.51
2022-08-27T13:18:41.147Z,25.40
2022-08-27T13:21:16.473Z,25.43
2022-08-27T13:23:57.713Z,25.41
2022-08-27T13:26:29.297Z,25.34
2022-08-27T13:29:03.340Z,25.50
2022-08-27T13:31:34.156Z,25.17
2022-08-27T13:34:05.851Z,24.92
2022-08-27T13:36:49.824Z,25.05
2022-08-27T13:39:18.285Z,24.92
2022-08-27T13:41:48.987Z,24.76
2022-08-27T13:44:23.825Z,24.90
2022-08-27T13:46:59.538Z,24.90
2022-08-27T13:49:31.728Z,24.89
2022-08-27T13:52:02.998Z,24.69
2022-08-27T13:54:33.904Z,24.69
2022-08-27T13:57:07.950Z,24.81
2022-08-27T13:59:42.831Z,25.05
2022-08-27T14:02:27.586Z,25.00
2022-08-27T14:05:10.788Z,24.61
2022-08-27T14:07:44.473Z,24.43
2022-08-27T14:10:30.764Z,24.62
2022-08-27T14:13:01.720Z,24.67
2022-08-27T14:15:33.477Z,24.67
2022-08-27T14:18:03.633Z,24.54
2022-08-27T14:20:33.014Z,24.73
2022-08-27T14:23:01.664Z,24.65
2022-08-27T14:25:30.984Z,24.88
2022-08-27T14:27:59.428Z,24.82
2022-08-27T14:30:29.926Z,24.74
2022-08-27T14:33:00.126Z,24.93
2022-08-27T14:35:29.577Z,24.98
2022-08-27T14:37:59.148Z,25.16
2022-08-27T14:40:27.831Z,25.13
2022-08-27T14:42:56.291Z,25.03
2022-08-27T14:45:24.867Z,25.20
2022-08-27T14:47:53.355Z,25.10
2022-08-27T14:50:28.191Z,25.02
2022-08-27T14:52:56.619Z,25.13
2022-08-27T14:55:25.103Z,25.06
2022-08-27T14:57:53.663Z,25.12
2022-08-27T15:00:22.261Z,25.00
2022-08-27T15:02:51.104Z,25.24
2022-08-27T15:05:20.341Z,25.14
2022-08-27T15:07:54.258Z,25.42
2022-08-27T15:10:23.182Z,25.51
2022-08-27T15:12:53.851Z,25.41
2022-08-27T15:15:22.516Z,25.54
2022-08-27T15:17:51.067Z,25.63
2022-08-27T15:20:20.604Z,25.78
2022-08-27T15:22:52.321Z,25.78
2022-08-27T15:25:21.628Z,25.96
2022-08-27T15:27:50.276Z,25.94
2022-08-27T15:30:25.500Z,25.88
2022-08-27T15:32:55.043Z,26.03
2022-08-27T15:35:26.222Z,26.10
2022-08-27T15:37:56.248Z,26.21
2022-08-27T15:40:26.915Z,26.31
2022-08-27T15:42:58.525Z,26.55
2022-08-27T15:45:28.087Z,26.57
2022-08-27T15:47:56.989Z,26.62
2022-08-27T15:50:27.416Z,26.80
2022-08-27T15:52:58.862Z,26.95
2022-08-27T15:55:29.681Z,27.07
2022-08-27T15:57:59.261Z,27.32
2022-08-27T16:00:28.550Z,27.17
2022-08-27T16:02:57.992Z,27.32
2022-08-27T16:05:28.366Z,27.38
2022-08-27T16:07:56.774Z,27.38
2022-08-27T16:10:25.188Z,27.50
2022-08-27T16:12:53.701Z,27.58
2022-08-27T16:15:22.162Z,27.81
2022-08-27T16:17:55.485Z,27.83
2022-08-27T16:20:25.195Z,27.92
2022-08-27T16:22:54.086Z,27.84
2022-08-27T16:25:23.047Z,27.84
2022-08-27T16:27:52.611Z,27.80
2022-08-27T16:30:24.584Z,27.94
2022-08-27T16:32:55.190Z,27.97
2022-08-27T16:35:24.559Z,28.16
2022-08-27T16:37:53.405Z,28.19
2022-08-27T16:40:21.786Z,28.21
2022-08-27T16:42:51.641Z,28.33
2022-08-27T16:45:22.384Z,28.31
2022-08-27T16:48:09.981Z,28.49
2022-08-27T16:50:39.602Z,28.63
2022-08-27T16:53:12.585Z,28.46
2022-08-27T16:55:42.585Z,28.61
2022-08-27T16:58:16.377Z,28.86
2022-08-27T17:00:46.598Z,28.98
2022-08-27T17:03:16.160Z,28.93
2022-08-27T17:05:44.561Z,29.10
2022-08-27T17:08:13.197Z,29.12
2022-08-27T17:10:45.801Z,29.24
2022-08-27T17:13:16.241Z,29.34
2022-08-27T17:15:44.707Z,29.55
2022-08-27T17:18:13.767Z,29.48
2022-08-27T17:20:43.278Z,29.45
2022-08-27T17:23:21.043Z,29.83
2022-08-27T17:25:49.653Z,29.82
2022-08-27T17:28:18.129Z,29.94
2022-08-27T17:30:46.745Z,30.13
2022-08-27T17:33:20.129Z,30.18
2022-08-27T17:35:48.698Z,30.32
2022-08-27T17:38:17.490Z,30.58
2022-08-27T17:40:46.051Z,30.50
2022-08-27T17:43:21.522Z,30.78
2022-08-27T17:45:50.571Z,30.71
2022-08-27T17:48:23.750Z,30.76
2022-08-27T17:50:54.641Z,30.87
2022-08-27T17:53:23.198Z,30.75
2022-08-27T17:55:51.870Z,31.07
2022-08-27T17:58:20.460Z,31.08
2022-08-27T18:00:48.919Z,30.70
2022-08-27T18:03:20.448Z,30.65
2022-08-27T18:05:49.781Z,30.67
2022-08-27T18:08:20.603Z,30.59
2022-08-27T18:10:49.155Z,30.55
2022-08-27T18:13:18.048Z,30.43
2022-08-27T18:15:47.112Z,30.56
2022-08-27T18:18:15.930Z,30.31
2022-08-27T18:20:44.263Z,30.48
2022-08-27T18:23:13.072Z,30.58
2022-08-27T18:25:44.151Z,30.46
2022-08-27T18:28:13.681Z,30.44
2022-08-27T18:30:44.285Z,30.50
2022-08-27T18:33:13.281Z,30.46
2022-08-27T18:35:42.571Z,30.47
2022-08-27T18:38:11.023Z,30.50
2022-08-27T18:40:43.592Z,30.80
2022-08-27T18:43:13.353Z,30.75
2022-08-27T18:45:42.260Z,30.65
2022-08-27T18:48:13.777Z,30.62
2022-08-27T18:50:45.225Z,31.02
2022-08-27T18:53:16.079Z,30.95
2022-08-27T18:55:45.150Z,30.83
2022-08-27T18:58:14.077Z,31.05
2022-08-27T19:00:45.918Z,31.21
2022-08-27T19:03:19.810Z,31.27
2022-08-27T19:05:48.956Z,31.24
2022-08-27T19:08:24.495Z,31.26
2022-08-27T19:10:52.843Z,31.33
2022-08-27T19:13:21.725Z,31.24
2022-08-27T19:15:54.571Z,31.40
2022-08-27T19:18:25.319Z,31.51
2022-08-27T19:20:53.977Z,31.55
2022-08-27T19:23:22.855Z,31.57
2022-08-27T19:25:52.086Z,31.66
2022-08-27T19:28:24.862Z,31.73
2022-08-27T19:30:53.292Z,31.83
2022-08-27T19:33:22.178Z,31.99
2022-08-27T19:35:50.918Z,32.05
2022-08-27T19:38:19.684Z,32.14
2022-08-27T19:40:48.094Z,32.26
2022-08-27T19:43:16.477Z,32.38
2022-08-27T19:45:45.045Z,32.31
2022-08-27T19:48:13.870Z,32.44
2022-08-27T19:50:42.299Z,32.41
2022-08-27T19:53:10.840Z,32.58
2022-08-27T19:55:44.844Z,32.67
2022-08-27T19:58:14.275Z,32.61
2022-08-27T20:00:43.258Z,32.71
2022-08-27T20:03:12.394Z,32.64
2022-08-27T20:05:41.057Z,32.71
2022-08-27T20:08:09.747Z,32.67
2022-08-27T20:10:41.596Z,32.77
2022-08-27T20:13:10.069Z,32.93
2022-08-27T20:15:39.427Z,32.96
2022-08-27T20:18:10.171Z,33.02
2022-08-27T20:20:40.170Z,32.99
2022-08-27T20:23:08.845Z,33.07
2022-08-27T20:25:37.495Z,33.04
2022-08-27T20:28:22.271Z,33.04
2022-08-27T20:30:57.379Z,33.13
2022-08-27T20:33:26.736Z,33.19
2022-08-27T20:35:55.879Z,33.22
2022-08-27T20:38:24.514Z,33.22
2022-08-27T20:40:52.903Z,33.29
2022-08-27T20:43:21.375Z,33.21
2022-08-27T20:45:49.795Z,33.40
2022-08-27T20:48:18.270Z,33.50
2022-08-27T20:50:46.669Z,33.60
2022-08-27T20:53:15.161Z,33.65
2022-08-27T20:55:43.561Z,33.67
2022-08-27T20:58:30.231Z,33.67
2022-08-27T21:00:59.828Z,33.81
2022-08-27T21:03:28.660Z,33.84
2022-08-27T21:05:57.063Z,33.83
2022-08-27T21:08:25.454Z,33.84
2022-08-27T21:10:56.548Z,33.88
2022-08-27T21:13:27.832Z,34.08
2022-08-27T21:15:56.852Z,34.06
2022-08-27T21:18:29.530Z,34.18
2022-08-27T21:20:58.703Z,34.14
2022-08-27T21:23:28.346Z,34.12
2022-08-27T21:26:03.077Z,34.26
2022-08-27T21:28:32.274Z,34.14
2022-08-27T21:31:00.810Z,34.18
2022-08-27T21:33:29.193Z,34.29
2022-08-27T21:35:57.556Z,34.22
2022-08-27T21:38:26.808Z,34.18
2022-08-27T21:40:55.362Z,34.25
2022-08-27T21:43:25.619Z,34.35
2022-08-27T21:45:55.730Z,34.44
2022-08-27T21:48:24.887Z,34.43
2022-08-27T21:50:53.814Z,34.57
2022-08-27T21:53:22.556Z,34.76
2022-08-27T21:55:53.735Z,34.80
2022-08-27T21:58:26.236Z,34.71
2022-08-27T22:00:56.153Z,34.65
2022-08-27T22:03:25.349Z,34.82
2022-08-27T22:05:54.234Z,34.75
2022-08-27T22:08:23.108Z,34.85
2022-08-27T22:10:54.685Z,34.81
2022-08-27T22:13:23.806Z,34.89
2022-08-27T22:15:52.316Z,34.92
2022-08-27T22:18:23.006Z,35.03
2022-08-27T22:20:53.211Z,35.02
2022-08-27T22:23:22.042Z,35.21
2022-08-27T22:25:50.388Z,35.27
2022-08-27T22:28:19.503Z,35.26
2022-08-27T22:30:47.859Z,35.29
2022-08-27T22:33:16.874Z,35.39
2022-08-27T22:35:45.333Z,35.51
2022-08-27T22:38:14.189Z,35.57
2022-08-27T22:40:42.990Z,35.65
2022-08-27T22:43:12.905Z,35.65
2022-08-27T22:45:41.319Z,35.59
2022-08-27T22:48:09.708Z,35.83
2022-08-27T22:50:38.095Z,35.87
2022-08-27T22:53:06.589Z,35.84
2022-08-27T22:55:35.443Z,36.04
2022-08-27T22:58:04.732Z,36.05
2022-08-27T23:00:35.600Z,36.07
2022-08-27T23:03:06.460Z,36.06
2022-08-27T23:05:41.589Z,36.30
2022-08-27T23:08:13.445Z,36.40
2022-08-27T23:10:43.050Z,36.16
2022-08-27T23:13:12.100Z,36.52
2022-08-27T23:15:41.108Z,36.57
2022-08-27T23:18:09.995Z,36.56
2022-08-27T23:20:38.441Z,36.68
2022-08-27T23:23:07.376Z,36.74
2022-08-27T23:26:09.118Z,36.83
2022-08-27T23:28:38.139Z,36.74
2022-08-27T23:31:07.306Z,37.03
2022-08-27T23:33:35.843Z,36.88
2022-08-27T23:36:04.843Z,36.90
2022-08-27T23:38:33.639Z,36.92
2022-08-27T23:41:02.137Z,37.03
2022-08-27T23:43:30.574Z,37.18
2022-08-27T23:45:59.111Z,37.23
2022-08-27T23:48:27.558Z,37.16
2022-08-27T23:50:55.929Z,37.25
2022-08-27T23:53:24.351Z,37.38
2022-08-27T23:55:52.870Z,37.66
2022-08-27T23:58:21.322Z,37.73
